Time;durP1;ratioP1;P1;durP2;ratioP2;P2;SDS_P1;SDS_P2;PMS_P1;PMS_P2;Temp;Humidity;BMP_temperature;BMP_pressure;BME280_temperature;BME280_humidity;BME280_pressure;Samples;Min_cycle;Max_cycle;Signal;HPM_P1;HPM_P2
2023/08/13 00:00:20;;;;;;;;;;;16.60;99.80;;;;;;5128881;27;19919;-71
2023/08/13 00:02:46;;;;;;;;;;;16.60;99.90;;;;;;5128111;27;19969;-74
2023/08/13 00:05:13;;;;;;;;;;;16.70;99.70;;;;;;5122497;27;19922;-70
2023/08/13 00:07:40;;;;;;;;;;;16.90;99.50;;;;;;5119831;27;19915;-70
2023/08/13 00:10:06;;;;;;;;;;;17.00;99.50;;;;;;5121023;27;19923;-72
2023/08/13 00:12:33;;;;;;;;;;;17.00;99.00;;;;;;5117816;27;20276;-70
2023/08/13 00:15:01;;;;;;;;;;;17.20;98.60;;;;;;5112729;28;19911;-68
2023/08/13 00:17:27;;;;;;;;;;;17.20;98.50;;;;;;5111832;28;19912;-74
2023/08/13 00:19:54;;;;;;;;;;;17.20;98.40;;;;;;5112490;28;19911;-70
2023/08/13 00:22:21;;;;;;;;;;;17.30;98.30;;;;;;5111577;28;20261;-76
2023/08/13 00:24:51;;;;;;;;;;;17.30;98.20;;;;;;5112397;28;20002;-70
2023/08/13 00:27:18;;;;;;;;;;;17.40;97.80;;;;;;5109472;28;19943;-71
2023/08/13 00:29:45;;;;;;;;;;;17.40;97.80;;;;;;5095120;28;19919;-69
2023/08/13 00:32:11;;;;;;;;;;;17.50;97.40;;;;;;5113332;28;19908;-70
2023/08/13 00:34:38;;;;;;;;;;;17.50;96.90;;;;;;5112988;28;20587;-69
2023/08/13 00:37:05;;;;;;;;;;;17.60;96.90;;;;;;5114694;28;19915;-69
2023/08/13 00:39:31;;;;;;;;;;;17.80;96.80;;;;;;5113049;28;19957;-81
2023/08/13 00:41:58;;;;;;;;;;;17.90;96.20;;;;;;5111876;28;19911;-69
2023/08/13 00:44:27;;;;;;;;;;;18.00;96.20;;;;;;5109773;28;19993;-73
2023/08/13 00:46:54;;;;;;;;;;;18.10;95.90;;;;;;5112654;28;20020;-74
2023/08/13 00:49:24;;;;;;;;;;;18.20;95.80;;;;;;5111766;28;20073;-72
2023/08/13 00:51:51;;;;;;;;;;;18.40;96.00;;;;;;5112412;28;20398;-72
2023/08/13 00:54:18;;;;;;;;;;;18.50;95.20;;;;;;5112461;28;19919;-71
2023/08/13 00:56:46;;;;;;;;;;;18.60;94.80;;;;;;5108314;28;19912;-70
2023/08/13 00:59:13;;;;;;;;;;;18.60;94.80;;;;;;5112594;28;19911;-73
2023/08/13 01:01:40;;;;;;;;;;;18.40;94.90;;;;;;5112421;28;20372;-71
2023/08/13 01:04:07;;;;;;;;;;;18.50;95.10;;;;;;5091316;28;19998;-72
2023/08/13 01:06:34;;;;;;;;;;;18.30;95.50;;;;;;5093786;28;19959;-72
2023/08/13 01:09:13;;;;;;;;;;;18.40;95.30;;;;;;5111648;28;19920;-74
2023/08/13 01:12:00;;;;;;;;;;;18.30;95.60;;;;;;5111726;28;20383;-69
2023/08/13 01:14:26;;;;;;;;;;;18.30;95.60;;;;;;5112390;28;20284;-69
2023/08/13 01:16:55;;;;;;;;;;;18.40;95.20;;;;;;5112358;28;19908;-68
2023/08/13 01:19:22;;;;;;;;;;;18.40;95.20;;;;;;5108895;28;19915;-72
2023/08/13 01:21:49;;;;;;;;;;;18.40;95.00;;;;;;5108194;28;20372;-81
2023/08/13 01:24:16;;;;;;;;;;;18.30;94.90;;;;;;5111785;28;19908;-73
2023/08/13 01:26:50;;;;;;;;;;;18.40;95.20;;;;;;5113769;28;19938;-84
2023/08/13 01:29:21;;;;;;;;;;;18.40;94.80;;;;;;5111827;28;19994;-77
2023/08/13 01:31:51;;;;;;;;;;;18.70;95.00;;;;;;5107499;28;19964;-71
2023/08/13 01:34:18;;;;;;;;;;;19.00;94.50;;;;;;5109416;28;19912;-73
2023/08/13 01:36:46;;;;;;;;;;;19.50;93.90;;;;;;5096108;28;19914;-75
2023/08/13 01:39:13;;;;;;;;;;;19.70;93.00;;;;;;5097838;28;19916;-80
2023/08/13 01:41:53;;;;;;;;;;;19.90;92.50;;;;;;5114061;28;20415;-74
2023/08/13 01:44:21;;;;;;;;;;;20.00;91.80;;;;;;5110844;28;20431;-69
2023/08/13 01:46:48;;;;;;;;;;;20.20;91.90;;;;;;5112618;28;19923;-72
2023/08/13 01:49:14;;;;;;;;;;;20.30;91.50;;;;;;5110561;28;19916;-72
2023/08/13 01:51:41;;;;;;;;;;;20.30;91.30;;;;;;5115388;28;20272;-71
2023/08/13 01:54:08;;;;;;;;;;;20.20;91.30;;;;;;5115321;28;20478;-71
2023/08/13 01:56:34;;;;;;;;;;;20.30;91.20;;;;;;5115436;28;19908;-70
2023/08/13 01:59:01;;;;;;;;;;;20.30;91.00;;;;;;5116237;28;19911;-75
2023/08/13 02:01:28;;;;;;;;;;;20.20;90.80;;;;;;5116213;28;20486;-69
2023/08/13 02:03:55;;;;;;;;;;;20.20;91.00;;;;;;5116329;28;20008;-76
2023/08/13 02:06:22;;;;;;;;;;;20.30;91.30;;;;;;5116109;28;20334;-75
2023/08/13 02:08:49;;;;;;;;;;;20.40;90.80;;;;;;5115954;28;19908;-71
2023/08/13 02:11:15;;;;;;;;;;;20.40;90.70;;;;;;5112940;28;19908;-73
2023/08/13 02:13:43;;;;;;;;;;;20.30;90.60;;;;;;5113158;28;19930;-68
2023/08/13 02:16:10;;;;;;;;;;;20.20;90.90;;;;;;5113436;28;19950;-74
2023/08/13 02:18:36;;;;;;;;;;;19.90;91.10;;;;;;5113641;28;19914;-70
2023/08/13 02:21:03;;;;;;;;;;;19.70;91.50;;;;;;5113266;28;19973;-74
2023/08/13 02:23:29;;;;;;;;;;;19.60;91.90;;;;;;5095111;28;20003;-75
2023/08/13 02:25:56;;;;;;;;;;;19.50;92.10;;;;;;5116283;28;20351;-70
2023/08/13 02:28:23;;;;;;;;;;;19.30;92.30;;;;;;5110427;28;19908;-70
2023/08/13 02:30:50;;;;;;;;;;;19.10;92.40;;;;;;5095669;28;19908;-70
2023/08/13 02:33:17;;;;;;;;;;;19.00;92.70;;;;;;5096015;28;19912;-74
2023/08/13 02:35:43;;;;;;;;;;;19.10;93.40;;;;;;5095584;28;19916;-71
2023/08/13 02:38:10;;;;;;;;;;;19.10;92.90;;;;;;5099102;28;19954;-73
2023/08/13 02:40:37;;;;;;;;;;;19.20;93.20;;;;;;5095419;28;19912;-73
2023/08/13 02:43:04;;;;;;;;;;;19.40;93.00;;;;;;5093899;28;19912;-71
2023/08/13 02:45:31;;;;;;;;;;;19.60;93.10;;;;;;5106347;28;20383;-78
2023/08/13 02:47:58;;;;;;;;;;;20.40;92.40;;;;;;5114514;28;19955;-76
2023/08/13 02:50:24;;;;;;;;;;;20.90;91.20;;;;;;5107465;28;19919;-71
2023/08/13 02:52:51;;;;;;;;;;;21.70;91.00;;;;;;5113632;28;19918;-71
2023/08/13 02:55:18;;;;;;;;;;;22.00;89.80;;;;;;5113297;28;19976;-73
2023/08/13 02:57:44;;;;;;;;;;;22.20;89.50;;;;;;5114685;28;19908;-70
2023/08/13 03:00:11;;;;;;;;;;;22.60;89.50;;;;;;5115773;28;19939;-71
2023/08/13 03:02:38;;;;;;;;;;;22.70;88.00;;;;;;5115798;28;19907;-73
2023/08/13 03:05:05;;;;;;;;;;;22.90;87.30;;;;;;5114994;28;20007;-76
2023/08/13 03:07:31;;;;;;;;;;;23.70;85.40;;;;;;5114233;28;19915;-74
2023/08/13 03:09:58;;;;;;;;;;;25.10;84.70;;;;;;5115111;28;19907;-72
2023/08/13 03:12:25;;;;;;;;;;;25.70;80.30;;;;;;5114524;28;20084;-69
2023/08/13 03:14:52;;;;;;;;;;;26.30;79.60;;;;;;5113073;28;20356;-72
2023/08/13 03:17:18;;;;;;;;;;;27.60;77.40;;;;;;5113478;28;19908;-73
2023/08/13 03:19:45;;;;;;;;;;;28.20;74.50;;;;;;5113516;28;19907;-71
2023/08/13 03:22:13;;;;;;;;;;;27.70;73.90;;;;;;5113994;28;19931;-71
2023/08/13 03:24:40;;;;;;;;;;;26.70;76.20;;;;;;5113393;28;20337;-70
2023/08/13 03:27:06;;;;;;;;;;;25.40;78.80;;;;;;5113860;28;19922;-71
2023/08/13 03:29:33;;;;;;;;;;;24.30;82.50;;;;;;5114658;28;19914;-74
2023/08/13 03:31:59;;;;;;;;;;;23.40;86.30;;;;;;5114905;28;19907;-72
2023/08/13 03:34:26;;;;;;;;;;;22.80;89.00;;;;;;5114667;28;20483;-72
2023/08/13 03:36:53;;;;;;;;;;;22.30;90.30;;;;;;5114728;28;19911;-69
2023/08/13 03:39:19;;;;;;;;;;;22.10;91.30;;;;;;5114772;28;19907;-70
2023/08/13 03:41:46;;;;;;;;;;;22.30;90.90;;;;;;5096502;28;20257;-70
2023/08/13 03:44:12;;;;;;;;;;;22.40;90.60;;;;;;5114572;28;19919;-69
2023/08/13 03:46:39;;;;;;;;;;;22.50;90.10;;;;;;5114528;28;19916;-71
2023/08/13 03:49:06;;;;;;;;;;;22.20;90.60;;;;;;5114798;28;20010;-71
2023/08/13 03:51:32;;;;;;;;;;;21.80;91.00;;;;;;5114602;28;19958;-71
2023/08/13 03:53:59;;;;;;;;;;;21.40;91.50;;;;;;5114338;28;19908;-69
2023/08/13 03:56:26;;;;;;;;;;;20.90;92.20;;;;;;5114771;28;19915;-70
2023/08/13 03:58:52;;;;;;;;;;;20.40;92.60;;;;;;5117724;28;19907;-72
2023/08/13 04:01:19;;;;;;;;;;;20.10;93.20;;;;;;5116496;28;19976;-71
2023/08/13 04:03:45;;;;;;;;;;;19.80;94.00;;;;;;5114135;28;19907;-72
2023/08/13 04:06:12;;;;;;;;;;;19.40;94.70;;;;;;5114045;28;20014;-72
2023/08/13 04:08:39;;;;;;;;;;;19.00;95.40;;;;;;5113905;28;20010;-69
2023/08/13 04:11:05;;;;;;;;;;;18.90;96.20;;;;;;5114152;28;19987;-73
2023/08/13 04:13:32;;;;;;;;;;;18.80;96.60;;;;;;5113978;28;20059;-71
2023/08/13 04:15:58;;;;;;;;;;;18.60;96.90;;;;;;5113859;28;20374;-73
2023/08/13 04:18:25;;;;;;;;;;;18.50;96.80;;;;;;5114069;28;20014;-72
2023/08/13 04:20:52;;;;;;;;;;;18.40;96.90;;;;;;5114107;28;20036;-71
2023/08/13 04:23:18;;;;;;;;;;;18.30;97.40;;;;;;5113777;28;19908;-69
2023/08/13 04:25:45;;;;;;;;;;;18.20;97.10;;;;;;5113714;28;19908;-72
2023/08/13 04:28:11;;;;;;;;;;;18.20;97.40;;;;;;5113798;28;19915;-72
2023/08/13 04:30:38;;;;;;;;;;;18.10;97.70;;;;;;5113955;28;19915;-71
2023/08/13 04:33:05;;;;;;;;;;;18.10;97.90;;;;;;5113539;28;19908;-70
2023/08/13 04:35:31;;;;;;;;;;;18.10;98.10;;;;;;5113648;28;20315;-68
2023/08/13 04:37:58;;;;;;;;;;;18.10;97.80;;;;;;5113600;28;19908;-76
2023/08/13 04:40:25;;;;;;;;;;;18.00;98.50;;;;;;5113700;28;20280;-70
2023/08/13 04:42:51;;;;;;;;;;;18.00;98.90;;;;;;5113573;28;19908;-73
2023/08/13 04:45:18;;;;;;;;;;;17.80;99.70;;;;;;5113507;28;19918;-71
2023/08/13 04:47:45;;;;;;;;;;;17.80;99.90;;;;;;5113457;28;19915;-70
2023/08/13 04:50:13;;;;;;;;;;;17.80;99.90;;;;;;5113721;28;19915;-71
2023/08/13 04:52:40;;;;;;;;;;;17.80;99.90;;;;;;5113572;28;19930;-69
2023/08/13 04:55:06;;;;;;;;;;;17.80;99.90;;;;;;5113231;28;19908;-72
2023/08/13 04:57:33;;;;;;;;;;;17.60;99.90;;;;;;5113390;28;19951;-72
2023/08/13 05:00:00;;;;;;;;;;;17.50;99.90;;;;;;5113590;28;19929;-71
2023/08/13 05:02:26;;;;;;;;;;;17.40;99.90;;;;;;5113207;28;19990;-76
2023/08/13 05:04:54;;;;;;;;;;;17.40;99.90;;;;;;5112374;28;19958;-72
2023/08/13 05:07:20;;;;;;;;;;;17.30;99.90;;;;;;5113440;28;19923;-76
2023/08/13 05:09:48;;;;;;;;;;;17.10;99.90;;;;;;5113721;28;19911;-70
2023/08/13 05:12:14;;;;;;;;;;;16.90;99.90;;;;;;5113451;28;19914;-76
2023/08/13 05:14:41;;;;;;;;;;;16.80;99.90;;;;;;5112873;28;20291;-71
2023/08/13 05:17:18;;;;;;;;;;;16.70;99.90;;;;;;5112925;28;19908;-75
2023/08/13 05:19:45;;;;;;;;;;;16.70;99.90;;;;;;5112908;28;19908;-70
2023/08/13 05:22:11;;;;;;;;;;;16.70;99.90;;;;;;5112981;28;20290;-68
2023/08/13 05:24:38;;;;;;;;;;;16.60;99.90;;;;;;5113094;28;19915;-71
2023/08/13 05:27:08;;;;;;;;;;;16.70;99.90;;;;;;5113058;28;19954;-71
2023/08/13 05:29:34;;;;;;;;;;;16.80;99.90;;;;;;5113163;28;19992;-70
2023/08/13 05:32:02;;;;;;;;;;;16.90;99.90;;;;;;5113193;28;20348;-76
2023/08/13 05:34:28;;;;;;;;;;;17.10;99.90;;;;;;5112972;28;19908;-71
2023/08/13 05:36:55;;;;;;;;;;;17.30;99.90;;;;;;5113058;28;19914;-69
2023/08/13 05:39:22;;;;;;;;;;;17.40;99.90;;;;;;5112899;28;20246;-68
2023/08/13 05:41:49;;;;;;;;;;;17.40;99.90;;;;;;5112959;28;19933;-78
2023/08/13 05:44:16;;;;;;;;;;;17.40;99.90;;;;;;5094428;28;19924;-69
2023/08/13 05:46:42;;;;;;;;;;;17.30;99.90;;;;;;5094572;28;20128;-76
2023/08/13 05:49:09;;;;;;;;;;;17.20;99.90;;;;;;5112958;28;19915;-69
2023/08/13 05:51:35;;;;;;;;;;;17.10;99.90;;;;;;5112791;28;19908;-69
2023/08/13 05:54:02;;;;;;;;;;;17.00;99.90;;;;;;5114988;28;19930;-69
2023/08/13 05:56:29;;;;;;;;;;;16.90;99.90;;;;;;5114574;28;19911;-72
2023/08/13 05:58:55;;;;;;;;;;;16.90;99.90;;;;;;5112958;28;19916;-70
2023/08/13 06:01:22;;;;;;;;;;;16.80;99.90;;;;;;5112787;28;19915;-71
2023/08/13 06:03:49;;;;;;;;;;;16.70;99.90;;;;;;5112736;28;19908;-76
2023/08/13 06:06:16;;;;;;;;;;;16.60;99.90;;;;;;5112725;28;20010;-75
2023/08/13 06:08:43;;;;;;;;;;;16.50;99.90;;;;;;5112869;28;19952;-73
2023/08/13 06:11:12;;;;;;;;;;;16.50;99.90;;;;;;5112845;28;19953;-73
2023/08/13 06:13:39;;;;;;;;;;;16.40;99.90;;;;;;5112333;28;19911;-72
2023/08/13 06:16:08;;;;;;;;;;;16.30;99.90;;;;;;5113388;28;20139;-69
2023/08/13 06:18:35;;;;;;;;;;;16.20;99.90;;;;;;5116867;28;19953;-69
2023/08/13 06:21:03;;;;;;;;;;;16.10;99.90;;;;;;5098279;28;20271;-72
2023/08/13 06:23:30;;;;;;;;;;;16.10;99.90;;;;;;5116202;28;19907;-69
2023/08/13 06:25:57;;;;;;;;;;;16.10;99.90;;;;;;5116232;28;19998;-69
2023/08/13 06:28:24;;;;;;;;;;;16.10;99.90;;;;;;5115881;28;20237;-71
2023/08/13 06:30:52;;;;;;;;;;;16.10;99.90;;;;;;5116337;28;19908;-70
2023/08/13 06:33:19;;;;;;;;;;;16.00;99.90;;;;;;5115932;28;20356;-69
2023/08/13 06:35:46;;;;;;;;;;;16.00;99.90;;;;;;5116176;28;19907;-72
2023/08/13 06:38:13;;;;;;;;;;;16.00;99.90;;;;;;5116048;28;20318;-69
2023/08/13 06:40:40;;;;;;;;;;;15.90;99.90;;;;;;5116149;28;19907;-70
2023/08/13 06:43:07;;;;;;;;;;;15.90;99.90;;;;;;5115968;28;19927;-76
2023/08/13 06:45:33;;;;;;;;;;;15.90;99.90;;;;;;5115480;28;19919;-68
2023/08/13 06:48:03;;;;;;;;;;;15.80;99.90;;;;;;5115850;28;19911;-70
2023/08/13 06:50:29;;;;;;;;;;;15.80;99.90;;;;;;5114958;28;19912;-68
2023/08/13 06:52:56;;;;;;;;;;;15.80;99.90;;;;;;5115675;28;20388;-69
2023/08/13 06:55:23;;;;;;;;;;;15.70;99.90;;;;;;5115565;28;19935;-68
2023/08/13 06:57:51;;;;;;;;;;;15.60;99.90;;;;;;5115671;28;19915;-69
2023/08/13 07:00:20;;;;;;;;;;;15.60;99.90;;;;;;5115564;28;20049;-71
2023/08/13 07:02:48;;;;;;;;;;;15.50;99.90;;;;;;5115477;28;19961;-70
2023/08/13 07:05:16;;;;;;;;;;;15.60;99.90;;;;;;5115191;28;19908;-69
2023/08/13 07:07:43;;;;;;;;;;;15.60;99.90;;;;;;5115235;28;19922;-68
2023/08/13 07:10:09;;;;;;;;;;;15.60;99.90;;;;;;5115603;28;20424;-72
2023/08/13 07:12:36;;;;;;;;;;;15.60;99.90;;;;;;5115986;28;19908;-70
2023/08/13 07:15:03;;;;;;;;;;;15.50;99.90;;;;;;5115716;28;19935;-73
2023/08/13 07:17:30;;;;;;;;;;;15.60;99.90;;;;;;5115282;28;19908;-77
2023/08/13 07:19:57;;;;;;;;;;;15.60;99.90;;;;;;5114850;28;19907;-73
2023/08/13 07:22:23;;;;;;;;;;;15.60;99.90;;;;;;5114931;28;19953;-69
2023/08/13 07:24:50;;;;;;;;;;;15.60;99.90;;;;;;5115534;28;19915;-71
2023/08/13 07:27:16;;;;;;;;;;;15.50;99.90;;;;;;5114994;28;20357;-70
2023/08/13 07:29:43;;;;;;;;;;;15.50;99.90;;;;;;5115010;28;19964;-70
2023/08/13 07:32:10;;;;;;;;;;;15.50;99.90;;;;;;5114975;28;19930;-72
2023/08/13 07:34:36;;;;;;;;;;;15.50;99.90;;;;;;5115017;28;19973;-71
2023/08/13 07:37:03;;;;;;;;;;;15.40;99.90;;;;;;5113881;28;19916;-69
2023/08/13 07:39:30;;;;;;;;;;;15.40;99.90;;;;;;5114648;28;20419;-73
2023/08/13 07:41:57;;;;;;;;;;;15.30;99.90;;;;;;5114518;28;19930;-69
2023/08/13 07:44:24;;;;;;;;;;;15.30;99.90;;;;;;5114758;28;19924;-71
2023/08/13 07:46:54;;;;;;;;;;;15.30;99.90;;;;;;5114515;28;20353;-68
2023/08/13 07:49:24;;;;;;;;;;;15.30;99.90;;;;;;5112602;28;20322;-73
2023/08/13 07:51:52;;;;;;;;;;;15.20;99.90;;;;;;5117378;28;20383;-69
2023/08/13 07:54:20;;;;;;;;;;;15.20;99.90;;;;;;5101288;28;19946;-76
2023/08/13 07:56:47;;;;;;;;;;;15.10;99.90;;;;;;5107413;28;19930;-74
2023/08/13 07:59:14;;;;;;;;;;;15.20;99.90;;;;;;5123562;28;19907;-69
2023/08/13 08:01:42;;;;;;;;;;;15.20;99.90;;;;;;5100577;28;19953;-75
2023/08/13 08:04:08;;;;;;;;;;;15.20;99.90;;;;;;5114987;28;19908;-72
2023/08/13 08:06:35;;;;;;;;;;;15.20;99.90;;;;;;5114732;28;20364;-76
2023/08/13 08:09:02;;;;;;;;;;;15.20;99.90;;;;;;5096362;28;19931;-74
2023/08/13 08:11:29;;;;;;;;;;;15.10;99.90;;;;;;5114535;28;19908;-73
2023/08/13 08:13:55;;;;;;;;;;;15.10;99.90;;;;;;5096678;28;19955;-70
2023/08/13 08:16:22;;;;;;;;;;;15.10;99.90;;;;;;5114740;28;19911;-74
2023/08/13 08:18:49;;;;;;;;;;;15.10;99.90;;;;;;5115344;28;19911;-75
2023/08/13 08:21:15;;;;;;;;;;;15.00;99.90;;;;;;5115684;28;19915;-81
2023/08/13 08:23:42;;;;;;;;;;;15.00;99.90;;;;;;5117046;28;19961;-69
2023/08/13 08:26:09;;;;;;;;;;;14.90;99.90;;;;;;5120008;28;19916;-79
2023/08/13 08:28:35;;;;;;;;;;;14.90;99.90;;;;;;5116899;28;19908;-69
2023/08/13 08:31:02;;;;;;;;;;;14.90;99.90;;;;;;5096663;28;20296;-79
2023/08/13 08:33:29;;;;;;;;;;;14.90;99.90;;;;;;5115117;28;20021;-75
2023/08/13 08:35:55;;;;;;;;;;;14.90;99.90;;;;;;5114676;28;19914;-73
2023/08/13 08:38:22;;;;;;;;;;;14.90;99.90;;;;;;5114175;28;20341;-75
2023/08/13 08:40:49;;;;;;;;;;;14.90;99.90;;;;;;5113046;28;19908;-77
2023/08/13 08:43:16;;;;;;;;;;;14.90;99.90;;;;;;5114408;28;19999;-78
2023/08/13 08:45:43;;;;;;;;;;;14.90;99.90;;;;;;5095662;28;19929;-78
2023/08/13 08:48:11;;;;;;;;;;;15.00;99.90;;;;;;5114430;28;19935;-74
2023/08/13 08:50:38;;;;;;;;;;;14.90;99.90;;;;;;5095314;28;19908;-72
2023/08/13 08:53:04;;;;;;;;;;;15.00;99.90;;;;;;5114050;28;20272;-70
2023/08/13 08:55:31;;;;;;;;;;;15.00;99.90;;;;;;5097126;28;19974;-69
2023/08/13 08:57:58;;;;;;;;;;;15.00;99.90;;;;;;5114068;28;19956;-72
2023/08/13 09:00:24;;;;;;;;;;;14.90;99.90;;;;;;5095818;28;20014;-68
2023/08/13 09:02:51;;;;;;;;;;;14.90;99.90;;;;;;5113769;28;19911;-71
2023/08/13 09:05:20;;;;;;;;;;;14.90;99.90;;;;;;5113662;28;20382;-73
2023/08/13 09:07:46;;;;;;;;;;;14.90;99.90;;;;;;5095310;28;20284;-76
2023/08/13 09:10:13;;;;;;;;;;;15.00;99.90;;;;;;5095262;28;19951;-82
2023/08/13 09:12:41;;;;;;;;;;;14.90;99.90;;;;;;5113527;28;19914;-76
2023/08/13 09:15:08;;;;;;;;;;;15.00;99.90;;;;;;5113461;28;20341;-72
2023/08/13 09:17:35;;;;;;;;;;;14.90;99.90;;;;;;5111036;28;19908;-73
2023/08/13 09:20:09;;;;;;;;;;;14.90;99.90;;;;;;5110984;28;19908;-68
2023/08/13 09:22:35;;;;;;;;;;;14.90;99.90;;;;;;5113260;28;19949;-74
2023/08/13 09:25:02;;;;;;;;;;;15.00;99.90;;;;;;5113122;28;19972;-73
2023/08/13 09:27:30;;;;;;;;;;;15.00;99.90;;;;;;5111565;28;20018;-78
2023/08/13 09:29:59;;;;;;;;;;;14.90;99.90;;;;;;5113874;28;19907;-75
2023/08/13 09:32:28;;;;;;;;;;;15.00;99.90;;;;;;5111445;28;19916;-71
2023/08/13 09:34:54;;;;;;;;;;;14.90;99.90;;;;;;5113267;28;19908;-68
2023/08/13 09:37:23;;;;;;;;;;;14.90;99.90;;;;;;5111761;28;20011;-79
2023/08/13 09:39:50;;;;;;;;;;;15.00;99.90;;;;;;5113879;28;20067;-72
2023/08/13 09:42:19;;;;;;;;;;;15.00;99.90;;;;;;5112981;28;19907;-71
2023/08/13 09:44:46;;;;;;;;;;;14.90;99.90;;;;;;5107581;28;19991;-72
2023/08/13 09:47:17;;;;;;;;;;;14.90;99.90;;;;;;5111355;28;19923;-69
2023/08/13 09:49:45;;;;;;;;;;;14.90;99.90;;;;;;5112051;28;19923;-73
2023/08/13 09:52:11;;;;;;;;;;;14.90;99.90;;;;;;5115790;28;19908;-69
2023/08/13 09:54:48;;;;;;;;;;;14.90;99.90;;;;;;5116178;28;19918;-68
2023/08/13 09:57:17;;;;;;;;;;;15.00;99.90;;;;;;5081127;28;20338;-74
2023/08/13 09:59:45;;;;;;;;;;;14.90;99.90;;;;;;5108302;28;19919;-69
2023/08/13 10:02:13;;;;;;;;;;;14.90;99.90;;;;;;5116234;28;19908;-73
2023/08/13 10:04:40;;;;;;;;;;;14.90;99.90;;;;;;5097867;28;19919;-70
2023/08/13 10:07:07;;;;;;;;;;;14.90;99.90;;;;;;5100457;28;20393;-71
2023/08/13 10:09:35;;;;;;;;;;;15.00;99.90;;;;;;5105846;27;19916;-72
2023/08/13 10:12:02;;;;;;;;;;;15.00;99.90;;;;;;5116396;28;19914;-74
2023/08/13 10:14:29;;;;;;;;;;;15.00;99.90;;;;;;5116052;28;19912;-69
2023/08/13 10:16:56;;;;;;;;;;;15.00;99.90;;;;;;5083662;28;19908;-74
2023/08/13 10:19:29;;;;;;;;;;;15.10;99.90;;;;;;5103423;28;19919;-73
2023/08/13 10:21:56;;;;;;;;;;;15.10;99.90;;;;;;5097563;28;19908;-74
2023/08/13 10:24:26;;;;;;;;;;;15.00;99.90;;;;;;5115534;27;20007;-75
2023/08/13 10:26:53;;;;;;;;;;;15.00;99.90;;;;;;5110848;28;19919;-70
2023/08/13 10:29:20;;;;;;;;;;;15.10;99.90;;;;;;5122282;27;20263;-73
2023/08/13 10:31:59;;;;;;;;;;;15.10;99.90;;;;;;5136661;27;19915;-69
2023/08/13 10:34:39;;;;;;;;;;;15.10;99.90;;;;;;5135070;27;19908;-72
2023/08/13 10:37:14;;;;;;;;;;;15.10;99.90;;;;;;5095500;28;19914;-71
2023/08/13 10:39:41;;;;;;;;;;;15.00;99.90;;;;;;5095681;28;19947;-74
2023/08/13 10:42:26;;;;;;;;;;;15.00;99.90;;;;;;5095488;28;20333;-73
2023/08/13 10:45:08;;;;;;;;;;;14.90;99.90;;;;;;5097378;28;20143;-71
2023/08/13 10:47:58;;;;;;;;;;;15.00;99.90;;;;;;5115489;28;19915;-69
2023/08/13 10:50:31;;;;;;;;;;;14.90;99.90;;;;;;5089370;28;19915;-75
2023/08/13 10:53:05;;;;;;;;;;;14.90;99.90;;;;;;5097018;28;19908;-71
2023/08/13 10:55:33;;;;;;;;;;;14.90;99.90;;;;;;5097198;28;19907;-72
2023/08/13 10:57:59;;;;;;;;;;;15.00;99.90;;;;;;5115310;28;19918;-69
2023/08/13 11:00:27;;;;;;;;;;;15.00;99.90;;;;;;5115187;28;19907;-72
2023/08/13 11:02:57;;;;;;;;;;;15.00;99.90;;;;;;5114270;28;19919;-71
2023/08/13 11:05:24;;;;;;;;;;;15.00;99.90;;;;;;5115057;28;20340;-71
2023/08/13 11:07:51;;;;;;;;;;;15.00;99.90;;;;;;5114895;28;19916;-72
2023/08/13 11:10:18;;;;;;;;;;;15.10;99.90;;;;;;5115172;28;20420;-73
2023/08/13 11:12:49;;;;;;;;;;;15.00;99.90;;;;;;5114869;28;19929;-69
2023/08/13 11:15:16;;;;;;;;;;;15.10;99.90;;;;;;5115006;28;19935;-69
2023/08/13 11:17:49;;;;;;;;;;;15.10;99.90;;;;;;5096420;28;19931;-72
2023/08/13 11:20:18;;;;;;;;;;;15.10;99.90;;;;;;5114836;28;19942;-70
2023/08/13 11:22:45;;;;;;;;;;;15.10;99.90;;;;;;5114931;28;19908;-77
2023/08/13 11:25:13;;;;;;;;;;;15.10;99.90;;;;;;5115268;28;19935;-76
2023/08/13 11:27:40;;;;;;;;;;;15.10;99.90;;;;;;5096814;28;19969;-69
2023/08/13 11:30:09;;;;;;;;;;;15.10;99.90;;;;;;5097062;28;19908;-70
2023/08/13 11:32:37;;;;;;;;;;;15.10;99.90;;;;;;5097660;28;19908;-76
2023/08/13 11:35:09;;;;;;;;;;;15.10;99.90;;;;;;5097040;28;19912;-69
2023/08/13 11:37:37;;;;;;;;;;;15.10;99.90;;;;;;5115158;28;19960;-70
2023/08/13 11:40:13;;;;;;;;;;;15.20;99.90;;;;;;5115240;28;19998;-79
2023/08/13 11:42:56;;;;;;;;;;;15.10;99.90;;;;;;5114586;28;19914;-69
2023/08/13 11:45:24;;;;;;;;;;;15.00;99.90;;;;;;5114820;28;19919;-75
2023/08/13 11:47:51;;;;;;;;;;;15.10;99.90;;;;;;5095728;28;20010;-79
2023/08/13 11:50:19;;;;;;;;;;;15.10;99.90;;;;;;5095226;28;20271;-76
2023/08/13 11:53:06;;;;;;;;;;;15.10;99.90;;;;;;5114618;28;19908;-73
2023/08/13 11:55:35;;;;;;;;;;;15.00;99.90;;;;;;5104978;28;19908;-76
2023/08/13 11:58:04;;;;;;;;;;;15.00;99.90;;;;;;5116137;28;19908;-73
2023/08/13 12:00:31;;;;;;;;;;;15.10;99.90;;;;;;5098506;28;20026;-72
2023/08/13 12:02:58;;;;;;;;;;;15.00;99.90;;;;;;5097041;28;19907;-75
2023/08/13 12:05:29;;;;;;;;;;;15.00;99.90;;;;;;5115318;28;19973;-73
2023/08/13 12:07:57;;;;;;;;;;;15.00;99.90;;;;;;5118847;28;19916;-71
2023/08/13 12:10:23;;;;;;;;;;;15.00;99.90;;;;;;5122971;28;20368;-68
2023/08/13 12:12:50;;;;;;;;;;;15.00;99.90;;;;;;5121521;28;19971;-68
2023/08/13 12:15:18;;;;;;;;;;;15.00;99.90;;;;;;5115199;28;20022;-78
2023/08/13 12:17:44;;;;;;;;;;;15.00;99.90;;;;;;5114127;28;19908;-75
2023/08/13 12:20:12;;;;;;;;;;;14.90;99.90;;;;;;5114286;28;19969;-68
2023/08/13 12:22:39;;;;;;;;;;;14.90;99.90;;;;;;5114582;28;19908;-68
2023/08/13 12:25:06;;;;;;;;;;;14.80;99.90;;;;;;5114512;28;19978;-76
2023/08/13 12:27:34;;;;;;;;;;;14.90;99.90;;;;;;5096375;28;19915;-75
2023/08/13 12:30:00;;;;;;;;;;;14.80;99.90;;;;;;5114357;28;20039;-76
2023/08/13 12:32:27;;;;;;;;;;;14.70;99.90;;;;;;5096060;28;19911;-79
2023/08/13 12:34:54;;;;;;;;;;;14.70;99.90;;;;;;5114453;28;19911;-78
2023/08/13 12:37:20;;;;;;;;;;;14.60;99.90;;;;;;5095380;28;19908;-73
2023/08/13 12:39:48;;;;;;;;;;;14.50;99.90;;;;;;5113840;28;19912;-74
2023/08/13 12:42:14;;;;;;;;;;;14.50;99.90;;;;;;5113588;28;19908;-72
2023/08/13 12:44:41;;;;;;;;;;;14.40;99.90;;;;;;5113408;28;19920;-69
2023/08/13 12:47:09;;;;;;;;;;;14.40;99.90;;;;;;5113212;28;20425;-71
2023/08/13 12:49:35;;;;;;;;;;;14.40;99.90;;;;;;5113490;28;19999;-71
2023/08/13 12:52:02;;;;;;;;;;;14.30;99.90;;;;;;5113390;28;20321;-71
2023/08/13 12:54:29;;;;;;;;;;;14.30;99.90;;;;;;5112865;28;19912;-74
2023/08/13 12:56:56;;;;;;;;;;;14.30;99.90;;;;;;5095027;28;19957;-76
2023/08/13 12:59:22;;;;;;;;;;;14.30;99.90;;;;;;5113054;28;20361;-72
2023/08/13 13:01:49;;;;;;;;;;;14.20;99.90;;;;;;5113496;28;19961;-71
2023/08/13 13:04:15;;;;;;;;;;;14.10;99.90;;;;;;5113141;28;19976;-71
2023/08/13 13:06:42;;;;;;;;;;;14.20;99.90;;;;;;5113487;28;19911;-72
2023/08/13 13:09:09;;;;;;;;;;;14.00;99.90;;;;;;5113483;28;19947;-72
2023/08/13 13:11:36;;;;;;;;;;;13.90;99.90;;;;;;5113182;28;19929;-71
2023/08/13 13:14:02;;;;;;;;;;;13.90;99.90;;;;;;5113240;28;20356;-69
2023/08/13 13:16:29;;;;;;;;;;;13.80;99.90;;;;;;5113123;28;19914;-70
2023/08/13 13:18:56;;;;;;;;;;;13.80;99.90;;;;;;5113008;28;19990;-69
2023/08/13 13:21:23;;;;;;;;;;;13.70;99.90;;;;;;5113130;28;20384;-68
2023/08/13 13:23:51;;;;;;;;;;;13.70;99.90;;;;;;5113041;28;19907;-71
2023/08/13 13:26:17;;;;;;;;;;;13.80;99.90;;;;;;5114547;28;20018;-68
2023/08/13 13:28:44;;;;;;;;;;;13.80;99.90;;;;;;5117426;28;19907;-73
2023/08/13 13:31:11;;;;;;;;;;;13.60;99.90;;;;;;5117564;28;20375;-69
2023/08/13 13:33:38;;;;;;;;;;;13.60;99.90;;;;;;5117575;28;19951;-69
2023/08/13 13:36:07;;;;;;;;;;;13.60;99.90;;;;;;5117300;28;20283;-69
2023/08/13 13:38:34;;;;;;;;;;;13.60;99.90;;;;;;5098982;28;20395;-69
2023/08/13 13:41:01;;;;;;;;;;;13.50;99.90;;;;;;5099099;28;19914;-70
2023/08/13 13:43:28;;;;;;;;;;;13.60;99.90;;;;;;5098587;28;19922;-72
2023/08/13 13:45:54;;;;;;;;;;;13.50;99.90;;;;;;5098673;28;19908;-73
2023/08/13 13:48:21;;;;;;;;;;;13.50;99.90;;;;;;5117075;28;19912;-72
2023/08/13 13:50:48;;;;;;;;;;;13.50;99.90;;;;;;5117084;28;19955;-70
2023/08/13 13:53:14;;;;;;;;;;;13.50;99.90;;;;;;5113028;28;19907;-69
2023/08/13 13:55:41;;;;;;;;;;;13.40;99.90;;;;;;5115707;28;19908;-74
2023/08/13 13:58:08;;;;;;;;;;;13.40;99.90;;;;;;5116446;28;20391;-69
2023/08/13 14:00:37;;;;;;;;;;;13.40;99.90;;;;;;5098078;28;20340;-71
2023/08/13 14:03:04;;;;;;;;;;;13.40;99.90;;;;;;5116277;28;20338;-67
2023/08/13 14:05:31;;;;;;;;;;;13.30;99.90;;;;;;5116734;28;19990;-69
2023/08/13 14:07:57;;;;;;;;;;;13.20;99.90;;;;;;5116659;28;20019;-67
2023/08/13 14:10:24;;;;;;;;;;;13.30;99.90;;;;;;5097707;28;20284;-69
2023/08/13 14:12:51;;;;;;;;;;;13.20;99.90;;;;;;5116267;28;20420;-70
2023/08/13 14:15:17;;;;;;;;;;;13.30;99.90;;;;;;5116189;28;19908;-68
2023/08/13 14:17:44;;;;;;;;;;;13.30;99.90;;;;;;5116151;28;20390;-70